Time;durP1;ratioP1;P1;durP2;ratioP2;P2;SDS_P1;SDS_P2;PMS_P1;PMS_P2;Temp;Humidity;BMP_temperature;BMP_pressure;BME280_temperature;BME280_humidity;BME280_pressure;Samples;Min_cycle;Max_cycle;Signal;HPM_P1;HPM_P2
2023/06/11 00:01:08;;;;;;;0.43;0.40;;;20.30;99.90;;;;;;5094785;28;20028;-71
2023/06/11 00:03:40;;;;;;;0.73;0.73;;;20.30;99.90;;;;;;5094918;28;20044;-72
2023/06/11 00:06:07;;;;;;;0.40;0.40;;;20.30;99.90;;;;;;5094908;28;20044;-71
2023/06/11 00:08:32;;;;;;;0.55;0.55;;;20.40;99.90;;;;;;5094985;28;20040;-72
2023/06/11 00:10:58;;;;;;;0.50;0.50;;;20.40;99.90;;;;;;5094833;28;20040;-71
2023/06/11 00:13:24;;;;;;;0.50;0.40;;;20.30;99.90;;;;;;5095062;28;20078;-72
2023/06/11 00:15:50;;;;;;;0.50;0.50;;;20.30;99.90;;;;;;5094865;28;20036;-71
2023/06/11 00:18:16;;;;;;;0.38;0.38;;;20.30;99.90;;;;;;5094714;28;20487;-71
2023/06/11 00:20:43;;;;;;;0.35;0.35;;;20.20;99.90;;;;;;5094904;28;20044;-71
2023/06/11 00:23:08;;;;;;;0.30;0.30;;;20.30;99.90;;;;;;5094446;28;20048;-70
2023/06/11 00:25:35;;;;;;;0.37;0.37;;;20.30;99.90;;;;;;5094571;28;20042;-70
2023/06/11 00:28:00;;;;;;;2.83;1.85;;;20.30;99.90;;;;;;5094593;28;20051;-70
2023/06/11 00:30:26;;;;;;;0.30;0.30;;;20.30;99.90;;;;;;5094548;28;20046;-71
2023/06/11 00:32:51;;;;;;;0.40;0.40;;;20.20;99.90;;;;;;5094476;28;20039;-71
2023/06/11 00:35:17;;;;;;;0.57;0.57;;;20.20;99.90;;;;;;5094288;28;20372;-71
2023/06/11 00:37:43;;;;;;;0.50;0.50;;;20.20;99.90;;;;;;5094163;28;20047;-71
2023/06/11 00:40:09;;;;;;;0.40;0.40;;;20.20;99.90;;;;;;5094345;28;20059;-71
2023/06/11 00:42:36;;;;;;;1.15;0.88;;;20.20;99.90;;;;;;5094304;28;20047;-71
2023/06/11 00:45:03;;;;;;;;;;;20.10;99.90;;;;;;5094772;28;20036;-72
2023/06/11 00:47:29;;;;;;;0.30;0.30;;;20.10;99.90;;;;;;5094294;28;20024;-71
2023/06/11 00:49:56;;;;;;;0.40;0.40;;;20.10;99.90;;;;;;5094424;28;20046;-72
2023/06/11 00:52:22;;;;;;;0.93;0.93;;;20.00;99.90;;;;;;5093879;28;20361;-70
2023/06/11 00:54:48;;;;;;;0.30;0.30;;;20.00;99.90;;;;;;5093926;28;20380;-71
2023/06/11 00:57:17;;;;;;;0.68;0.68;;;20.00;99.90;;;;;;5094119;28;20040;-71
2023/06/11 00:59:47;;;;;;;0.40;0.40;;;20.00;99.90;;;;;;5094055;28;20500;-70
2023/06/11 01:02:21;;;;;;;0.45;0.45;;;19.90;99.90;;;;;;5094083;28;20045;-70
2023/06/11 01:04:51;;;;;;;0.40;0.40;;;19.90;99.90;;;;;;5092913;28;20547;-70
2023/06/11 01:07:18;;;;;;;0.30;0.30;;;19.80;99.90;;;;;;5093921;28;20040;-70
2023/06/11 01:09:45;;;;;;;0.40;0.40;;;19.80;99.90;;;;;;5093932;28;20051;-70
2023/06/11 01:12:12;;;;;;;0.50;0.50;;;19.70;99.90;;;;;;5093960;28;20166;-70
2023/06/11 01:14:39;;;;;;;0.70;0.57;;;19.70;99.90;;;;;;5094334;28;20051;-70
2023/06/11 01:17:23;;;;;;;2.63;1.65;;;19.60;99.90;;;;;;5093895;28;20035;-70
2023/06/11 01:19:55;;;;;;;0.60;0.60;;;19.60;99.90;;;;;;5093868;28;20345;-70
2023/06/11 01:22:33;;;;;;;0.60;0.60;;;19.50;99.90;;;;;;5094281;28;20051;-71
2023/06/11 01:25:24;;;;;;;0.30;0.30;;;19.50;99.90;;;;;;5093688;28;20499;-70
2023/06/11 01:28:04;;;;;;;0.40;0.40;;;19.40;99.90;;;;;;5093984;28;20388;-70
2023/06/11 01:30:33;;;;;;;0.30;0.30;;;19.30;99.90;;;;;;5093750;28;20558;-70
2023/06/11 01:33:00;;;;;;;1.95;0.60;;;19.30;99.90;;;;;;5094143;28;20138;-70
2023/06/11 01:35:27;;;;;;;;;;;19.20;99.90;;;;;;5094148;28;20040;-69
2023/06/11 01:37:55;;;;;;;0.73;0.73;;;19.20;99.90;;;;;;5091873;28;19927;-70
2023/06/11 01:40:26;;;;;;;0.40;0.40;;;19.20;99.90;;;;;;5093729;28;20043;-70
2023/06/11 01:42:52;;;;;;;0.30;0.30;;;19.10;99.90;;;;;;5093663;28;20055;-70
2023/06/11 01:45:18;;;;;;;0.40;0.40;;;19.00;99.90;;;;;;5093341;28;20040;-70
2023/06/11 01:47:44;;;;;;;0.93;0.93;;;19.00;99.90;;;;;;5093661;28;20055;-70
2023/06/11 01:50:11;;;;;;;0.50;0.50;;;19.00;99.90;;;;;;5093893;28;20471;-70
2023/06/11 01:52:38;;;;;;;0.30;0.30;;;18.90;99.90;;;;;;5093577;28;20032;-70
2023/06/11 01:55:04;;;;;;;0.40;0.40;;;18.90;99.90;;;;;;5093462;28;20082;-70
2023/06/11 01:57:30;;;;;;;0.63;0.63;;;18.90;99.90;;;;;;5093549;28;20039;-70
2023/06/11 01:59:56;;;;;;;0.67;0.60;;;18.90;99.90;;;;;;5093479;28;20040;-70
2023/06/11 02:02:21;;;;;;;0.40;0.40;;;18.80;99.90;;;;;;5093504;28;20043;-70
2023/06/11 02:04:49;;;;;;;0.30;0.30;;;18.80;99.90;;;;;;5094455;28;20123;-70
2023/06/11 02:07:16;;;;;;;0.40;0.40;;;18.70;99.90;;;;;;5097609;28;20119;-70
2023/06/11 02:09:41;;;;;;;0.40;0.40;;;18.60;99.90;;;;;;5097233;28;20086;-71
2023/06/11 02:12:07;;;;;;;0.30;0.30;;;18.60;99.90;;;;;;5097140;28;20046;-71
2023/06/11 02:14:32;;;;;;;0.30;0.30;;;18.60;99.90;;;;;;5097052;28;20036;-71
2023/06/11 02:16:58;;;;;;;0.30;0.30;;;18.60;99.90;;;;;;5097077;28;20406;-70
2023/06/11 02:19:24;;;;;;;0.33;0.33;;;18.50;99.90;;;;;;5097453;28;20086;-70
2023/06/11 02:21:49;;;;;;;0.30;0.30;;;18.60;99.90;;;;;;5097196;28;20036;-70
2023/06/11 02:24:15;;;;;;;0.40;0.40;;;18.60;99.90;;;;;;5096949;28;20111;-70
2023/06/11 02:26:41;;;;;;;0.33;0.33;;;18.60;99.90;;;;;;5096884;28;20040;-70
2023/06/11 02:29:06;;;;;;;1.03;1.00;;;18.50;99.90;;;;;;5096837;28;20044;-70
2023/06/11 02:31:32;;;;;;;0.30;0.30;;;18.50;99.90;;;;;;5096808;28;20050;-70
2023/06/11 02:33:58;;;;;;;0.30;0.30;;;18.40;99.90;;;;;;5096765;28;20036;-71
2023/06/11 02:36:23;;;;;;;0.30;0.30;;;18.40;99.90;;;;;;5096769;28;20392;-70
2023/06/11 02:38:49;;;;;;;0.30;0.30;;;18.40;99.90;;;;;;5096749;28;20031;-70
2023/06/11 02:41:15;;;;;;;0.30;0.30;;;18.30;99.90;;;;;;5096706;28;20040;-70
2023/06/11 02:43:41;;;;;;;0.30;0.30;;;18.30;99.90;;;;;;5096312;28;20051;-70
2023/06/11 02:46:07;;;;;;;0.32;0.32;;;18.20;99.90;;;;;;5096513;28;20075;-70
2023/06/11 02:48:32;;;;;;;0.30;0.30;;;18.20;99.90;;;;;;5096504;28;20082;-70
2023/06/11 02:50:58;;;;;;;0.30;0.30;;;18.20;99.90;;;;;;5096735;28;20039;-70
2023/06/11 02:53:23;;;;;;;0.40;0.40;;;18.20;99.90;;;;;;5096547;28;20119;-70
2023/06/11 02:55:49;;;;;;;0.40;0.40;;;18.10;99.90;;;;;;5096337;28;20044;-71
2023/06/11 02:58:15;;;;;;;0.30;0.30;;;18.00;99.90;;;;;;5096218;28;20082;-70
2023/06/11 03:00:40;;;;;;;1.80;0.57;;;18.00;99.90;;;;;;5096205;28;20047;-70
2023/06/11 03:03:06;;;;;;;0.30;0.30;;;18.00;99.90;;;;;;5096633;28;20051;-70
2023/06/11 03:05:31;;;;;;;0.30;0.30;;;18.00;99.90;;;;;;5096135;28;20484;-70
2023/06/11 03:07:57;;;;;;;0.30;0.30;;;18.00;99.90;;;;;;5096606;28;20384;-70
2023/06/11 03:10:23;;;;;;;0.63;0.63;;;18.00;99.90;;;;;;5096134;28;20036;-70
2023/06/11 03:12:49;;;;;;;0.55;0.45;;;17.90;99.90;;;;;;5095855;28;20044;-71
2023/06/11 03:15:15;;;;;;;0.33;0.33;;;17.90;99.90;;;;;;5095952;28;20039;-70
2023/06/11 03:17:40;;;;;;;0.50;0.50;;;17.90;99.90;;;;;;5096035;28;20036;-70
2023/06/11 03:20:06;;;;;;;0.40;0.40;;;17.90;99.90;;;;;;5094320;28;20395;-70
2023/06/11 03:22:32;;;;;;;1.10;1.00;;;17.90;99.90;;;;;;5094726;28;20040;-70
2023/06/11 03:24:58;;;;;;;0.53;0.53;;;17.90;99.90;;;;;;5095788;28;20132;-70
2023/06/11 03:27:23;;;;;;;0.40;0.40;;;17.90;99.90;;;;;;5095700;28;20075;-70
2023/06/11 03:29:49;;;;;;;0.50;0.50;;;17.90;99.90;;;;;;5095753;28;20483;-70
2023/06/11 03:32:15;;;;;;;0.30;0.30;;;17.90;99.90;;;;;;5096099;28;20036;-70
2023/06/11 03:34:42;;;;;;;0.40;0.40;;;17.90;99.90;;;;;;5095557;28;20079;-70
2023/06/11 03:37:08;;;;;;;0.40;0.40;;;17.90;99.90;;;;;;5095913;28;20114;-71
2023/06/11 03:39:33;;;;;;;0.40;0.40;;;17.90;99.90;;;;;;5095668;28;20528;-70
2023/06/11 03:41:59;;;;;;;0.60;0.60;;;17.90;99.90;;;;;;5095478;28;20400;-71
2023/06/11 03:44:25;;;;;;;0.50;0.50;;;17.90;99.90;;;;;;5095332;28;20047;-71
2023/06/11 03:46:50;;;;;;;0.30;0.30;;;17.90;99.90;;;;;;5095327;28;20039;-70
2023/06/11 03:49:16;;;;;;;0.30;0.30;;;18.00;99.90;;;;;;5095352;28;20089;-70
2023/06/11 03:51:41;;;;;;;0.30;0.30;;;18.00;99.90;;;;;;5095103;28;20036;-70
2023/06/11 03:54:07;;;;;;;0.60;0.60;;;18.00;99.90;;;;;;5095206;28;20075;-70
2023/06/11 03:56:32;;;;;;;0.60;0.60;;;18.10;99.90;;;;;;5094984;28;20399;-71
2023/06/11 03:58:58;;;;;;;0.50;0.50;;;18.10;99.90;;;;;;5095115;28;20036;-70
2023/06/11 04:01:24;;;;;;;0.60;0.40;;;18.20;99.90;;;;;;5095126;28;20101;-71
2023/06/11 04:03:49;;;;;;;0.40;0.40;;;18.20;99.90;;;;;;5095388;28;20044;-71
2023/06/11 04:06:17;;;;;;;0.40;0.40;;;18.30;99.90;;;;;;5094977;28;20044;-71
2023/06/11 04:08:43;;;;;;;1.75;0.70;;;18.20;99.90;;;;;;5094036;28;20044;-71
2023/06/11 04:11:09;;;;;;;0.40;0.40;;;18.20;99.90;;;;;;5094874;28;20533;-71
2023/06/11 04:13:34;;;;;;;0.90;0.65;;;18.20;99.90;;;;;;5093857;28;20040;-71
2023/06/11 04:16:00;;;;;;;0.70;0.70;;;18.20;99.90;;;;;;5094822;28;20489;-71
2023/06/11 04:18:27;;;;;;;0.50;0.50;;;18.20;99.90;;;;;;5094768;28;20039;-71
2023/06/11 04:20:53;;;;;;;0.40;0.40;;;18.20;99.90;;;;;;5094771;28;20040;-71
2023/06/11 04:23:18;;;;;;;0.50;0.50;;;18.20;99.90;;;;;;5094687;28;20035;-71
2023/06/11 04:25:44;;;;;;;0.47;0.47;;;18.20;99.90;;;;;;5094779;28;20043;-71
2023/06/11 04:28:10;;;;;;;0.40;0.40;;;18.20;99.90;;;;;;5093762;28;20365;-70
2023/06/11 04:30:36;;;;;;;0.43;0.43;;;18.20;99.90;;;;;;5095364;28;20130;-70
2023/06/11 04:33:03;;;;;;;;;;;18.20;99.90;;;;;;5094939;28;20105;-71
2023/06/11 04:35:34;;;;;;;0.40;0.40;;;18.30;99.90;;;;;;5094448;28;20041;-71
2023/06/11 04:38:03;;;;;;;0.40;0.40;;;18.30;99.90;;;;;;5094512;28;20042;-71
2023/06/11 04:40:28;;;;;;;0.30;0.30;;;18.30;99.90;;;;;;5092960;28;20130;-70
2023/06/11 04:42:54;;;;;;;0.50;0.50;;;18.40;99.90;;;;;;5093989;28;20519;-71
2023/06/11 04:45:20;;;;;;;0.40;0.40;;;18.40;99.90;;;;;;5094364;28;20123;-70
2023/06/11 04:47:46;;;;;;;0.50;0.50;;;18.50;99.90;;;;;;5094035;28;20387;-71
2023/06/11 04:50:12;;;;;;;0.68;0.68;;;18.50;99.90;;;;;;5094366;28;20383;-70
2023/06/11 04:52:38;;;;;;;0.50;0.50;;;18.50;99.90;;;;;;5093117;28;20088;-71
2023/06/11 04:55:06;;;;;;;0.63;0.63;;;18.50;99.90;;;;;;5094129;28;20093;-70
2023/06/11 04:57:34;;;;;;;1.65;0.75;;;18.50;99.90;;;;;;5094102;28;20545;-71
2023/06/11 05:00:02;;;;;;;0.70;0.70;;;18.80;99.90;;;;;;5094103;28;20051;-71
2023/06/11 05:02:28;;;;;;;0.40;0.40;;;18.60;99.90;;;;;;5094098;28;20048;-71
2023/06/11 05:04:54;;;;;;;0.50;0.50;;;18.60;99.90;;;;;;5094283;28;20055;-71
2023/06/11 05:07:20;;;;;;;0.40;0.40;;;18.70;99.90;;;;;;5094175;28;20079;-71
2023/06/11 05:09:46;;;;;;;0.43;0.43;;;18.70;99.90;;;;;;5094450;28;20086;-70
2023/06/11 05:12:12;;;;;;;0.30;0.30;;;18.70;99.90;;;;;;5093626;28;20464;-70
2023/06/11 05:14:38;;;;;;;0.40;0.40;;;18.80;99.90;;;;;;5075751;28;20040;-71
2023/06/11 05:17:04;;;;;;;0.63;0.63;;;18.70;99.90;;;;;;5094237;28;20039;-70
2023/06/11 05:19:30;;;;;;;0.60;0.60;;;18.80;99.90;;;;;;5093918;28;20383;-71
2023/06/11 05:21:55;;;;;;;0.50;0.50;;;19.00;99.90;;;;;;5093919;28;20570;-70
2023/06/11 05:24:28;;;;;;;0.63;0.63;;;19.10;99.90;;;;;;5093885;28;20146;-71
2023/06/11 05:26:55;;;;;;;0.30;0.30;;;19.30;99.90;;;;;;5094320;28;20044;-71
2023/06/11 05:29:21;;;;;;;0.80;0.55;;;19.70;99.90;;;;;;5094241;28;20055;-70
2023/06/11 05:31:47;;;;;;;0.40;0.40;;;20.00;99.90;;;;;;5092625;28;20052;-70
2023/06/11 05:34:12;;;;;;;0.30;0.30;;;20.20;99.90;;;;;;5093729;28;20044;-71
2023/06/11 05:36:38;;;;;;;0.83;0.83;;;20.50;99.90;;;;;;5093751;28;20036;-70
2023/06/11 05:39:04;;;;;;;0.43;0.43;;;20.80;99.90;;;;;;5094741;28;20036;-71
2023/06/11 05:41:30;;;;;;;0.40;0.40;;;21.10;99.90;;;;;;5097518;28;20043;-71
2023/06/11 05:43:56;;;;;;;0.40;0.40;;;21.30;99.90;;;;;;5097743;28;20058;-71
2023/06/11 05:46:24;;;;;;;0.40;0.40;;;21.60;99.90;;;;;;5097361;28;20478;-71
2023/06/11 05:48:49;;;;;;;0.50;0.50;;;21.80;99.90;;;;;;5097721;28;20125;-71
2023/06/11 05:51:15;;;;;;;0.40;0.40;;;22.00;99.90;;;;;;5097588;28;20079;-71
2023/06/11 05:53:40;;;;;;;0.30;0.30;;;22.10;99.90;;;;;;5097591;28;20093;-71
2023/06/11 05:56:06;;;;;;;0.30;0.30;;;22.30;99.90;;;;;;5097410;28;20036;-70
2023/06/11 05:58:33;;;;;;;0.97;0.97;;;22.50;99.90;;;;;;5097471;28;20043;-71
2023/06/11 06:01:03;;;;;;;0.40;0.40;;;22.70;99.90;;;;;;5097464;28;20040;-71
2023/06/11 06:03:33;;;;;;;0.55;0.52;;;22.80;99.90;;;;;;5097340;28;20105;-71
2023/06/11 06:06:02;;;;;;;0.50;0.50;;;23.00;99.90;;;;;;5097273;28;20047;-71
2023/06/11 06:08:29;;;;;;;0.75;0.75;;;23.00;99.90;;;;;;5097236;28;20063;-72
2023/06/11 06:10:57;;;;;;;0.75;0.65;;;23.10;99.90;;;;;;5097631;28;20385;-71
2023/06/11 06:13:24;;;;;;;0.80;0.80;;;23.20;99.90;;;;;;5097384;28;20040;-71
2023/06/11 06:15:50;;;;;;;;;;;23.30;99.90;;;;;;5097487;28;20035;-70
2023/06/11 06:18:16;;;;;;;0.30;0.30;;;23.30;99.90;;;;;;5097113;28;20267;-71
2023/06/11 06:20:42;;;;;;;0.40;0.40;;;23.40;99.90;;;;;;5096836;28;20067;-71
2023/06/11 06:23:08;;;;;;;0.50;0.43;;;23.40;99.90;;;;;;5097002;28;20036;-71
2023/06/11 06:25:37;;;;;;;0.50;0.50;;;23.50;99.90;;;;;;5097006;28;20058;-71
2023/06/11 06:28:04;;;;;;;0.30;0.30;;;23.60;99.90;;;;;;5095897;28;20044;-71
2023/06/11 06:30:30;;;;;;;0.60;0.60;;;23.70;99.90;;;;;;5096889;28;20040;-71
2023/06/11 06:32:56;;;;;;;0.40;0.40;;;23.80;99.90;;;;;;5095711;28;20043;-71
2023/06/11 06:35:21;;;;;;;0.50;0.50;;;23.80;99.90;;;;;;5096907;28;20192;-71
2023/06/11 06:37:47;;;;;;;0.90;0.90;;;23.80;99.90;;;;;;5096674;28;20044;-71
2023/06/11 06:40:13;;;;;;;0.40;0.40;;;24.00;99.90;;;;;;5095775;28;20467;-71
2023/06/11 06:42:38;;;;;;;0.50;0.50;;;24.10;99.90;;;;;;5096606;28;20046;-71
2023/06/11 06:45:05;;;;;;;0.60;0.60;;;24.10;99.90;;;;;;5096596;28;20110;-71
2023/06/11 06:47:30;;;;;;;0.65;0.52;;;24.20;99.90;;;;;;5096535;28;20313;-71
2023/06/11 06:49:56;;;;;;;0.40;0.40;;;24.20;99.90;;;;;;5096282;28;20106;-71
2023/06/11 06:52:21;;;;;;;0.73;0.73;;;24.30;99.90;;;;;;5095736;28;20115;-71
2023/06/11 06:54:49;;;;;;;0.50;0.50;;;24.20;99.90;;;;;;5096547;28;20051;-71
2023/06/11 06:57:15;;;;;;;0.60;0.60;;;24.30;99.90;;;;;;5096880;28;20040;-71
2023/06/11 06:59:40;;;;;;;0.43;0.43;;;24.40;99.90;;;;;;5096620;28;20043;-71
2023/06/11 07:02:06;;;;;;;0.40;0.40;;;24.50;99.90;;;;;;5096251;28;20452;-71
2023/06/11 07:04:32;;;;;;;0.52;0.50;;;24.60;99.90;;;;;;5096415;28;20303;-71
2023/06/11 07:06:58;;;;;;;0.40;0.40;;;24.70;99.90;;;;;;5096152;28;20040;-72
2023/06/11 07:09:24;;;;;;;0.27;0.27;;;24.70;99.90;;;;;;5094906;28;20491;-72
2023/06/11 07:11:52;;;;;;;0.50;0.50;;;24.70;99.90;;;;;;5096523;28;20115;-71
2023/06/11 07:14:17;;;;;;;0.30;0.30;;;24.80;99.90;;;;;;5095760;28;20494;-71
2023/06/11 07:16:43;;;;;;;1.07;0.43;;;24.90;99.90;;;;;;5096275;28;20044;-71
2023/06/11 07:19:08;;;;;;;0.50;0.40;;;25.00;99.90;;;;;;5096006;28;20436;-71
2023/06/11 07:21:36;;;;;;;0.30;0.30;;;25.00;99.90;;;;;;5095857;28;20519;-71
2023/06/11 07:24:04;;;;;;;1.10;0.82;;;25.10;99.90;;;;;;5095849;28;20032;-71
2023/06/11 07:26:30;;;;;;;0.50;0.50;;;25.20;99.90;;;;;;5095824;28;20085;-71
2023/06/11 07:28:56;;;;;;;0.50;0.50;;;25.30;99.90;;;;;;5095630;28;20479;-72
2023/06/11 07:31:21;;;;;;;0.30;0.30;;;25.40;99.90;;;;;;5095930;28;20039;-71
2023/06/11 07:33:49;;;;;;;0.50;0.50;;;25.40;99.90;;;;;;5095243;28;20483;-71
2023/06/11 07:36:15;;;;;;;0.90;0.88;;;25.60;99.90;;;;;;5095503;28;20036;-71
2023/06/11 07:38:42;;;;;;;0.55;0.55;;;25.60;99.90;;;;;;5095994;28;20093;-71
2023/06/11 07:41:08;;;;;;;0.57;0.57;;;25.70;99.90;;;;;;5095536;28;20431;-71
2023/06/11 07:43:33;;;;;;;2.83;0.93;;;25.80;99.90;;;;;;5095367;28;20122;-71
2023/06/11 07:45:59;;;;;;;0.40;0.40;;;25.90;99.90;;;;;;5095314;28;20104;-72
2023/06/11 07:48:25;;;;;;;0.70;0.70;;;26.10;99.90;;;;;;5095370;28;20039;-71
2023/06/11 07:50:52;;;;;;;0.50;0.50;;;26.20;99.90;;;;;;5095282;28;20375;-71
2023/06/11 07:53:19;;;;;;;0.55;0.55;;;26.30;99.90;;;;;;5095230;28;20044;-71
2023/06/11 07:55:45;;;;;;;0.47;0.40;;;26.30;99.90;;;;;;5095539;28;20039;-72
2023/06/11 07:58:10;;;;;;;0.63;0.53;;;26.50;99.90;;;;;;5095550;28;20405;-71
2023/06/11 08:00:36;;;;;;;0.33;0.33;;;26.50;99.90;;;;;;5095102;28;20383;-71
2023/06/11 08:03:01;;;;;;;0.50;0.50;;;26.60;99.90;;;;;;5094954;28;20044;-71
2023/06/11 08:05:27;;;;;;;0.77;0.77;;;26.60;99.90;;;;;;5094846;28;20559;-71
2023/06/11 08:07:53;;;;;;;0.60;0.60;;;26.60;99.90;;;;;;5094983;28;20054;-71
2023/06/11 08:10:18;;;;;;;0.67;0.60;;;26.70;99.90;;;;;;5094916;28;20044;-71
2023/06/11 08:12:44;;;;;;;0.30;0.30;;;26.80;99.90;;;;;;5095196;28;20066;-71
2023/06/11 08:15:10;;;;;;;0.57;0.57;;;27.00;99.90;;;;;;5094722;28;20093;-71
2023/06/11 08:17:35;;;;;;;0.30;0.30;;;27.10;99.90;;;;;;5094756;28;20043;-71
2023/06/11 08:20:02;;;;;;;0.47;0.47;;;27.00;99.80;;;;;;5094731;28;20048;-71
2023/06/11 08:22:28;;;;;;;0.35;0.35;;;27.00;99.70;;;;;;5095748;28;20282;-72
2023/06/11 08:24:54;;;;;;;0.57;0.40;;;27.10;99.90;;;;;;5094663;28;20045;-71
2023/06/11 08:27:19;;;;;;;0.50;0.50;;;27.20;99.90;;;;;;5094528;28;20036;-71
2023/06/11 08:29:45;;;;;;;1.43;1.33;;;27.30;99.50;;;;;;5094418;28;20047;-72
2023/06/11 08:32:11;;;;;;;1.00;0.90;;;27.40;99.90;;;;;;5094531;28;20123;-71
2023/06/11 08:34:36;;;;;;;1.13;1.02;;;27.30;99.60;;;;;;5094534;28;20036;-71
2023/06/11 08:37:03;;;;;;;0.55;0.55;;;27.50;99.90;;;;;;5094419;28;20050;-71
2023/06/11 08:39:29;;;;;;;0.63;0.63;;;27.60;99.40;;;;;;5094562;28;20495;-71
2023/06/11 08:41:55;;;;;;;0.50;0.50;;;27.70;98.80;;;;;;5093685;28;20044;-72
2023/06/11 08:44:21;;;;;;;0.68;0.68;;;27.80;98.80;;;;;;5094744;28;20040;-71
2023/06/11 08:46:49;;;;;;;0.50;0.50;;;27.70;99.00;;;;;;5094480;28;20042;-71
2023/06/11 08:49:21;;;;;;;0.95;0.68;;;27.80;99.10;;;;;;5094281;28;20417;-71
2023/06/11 08:51:48;;;;;;;0.63;0.63;;;28.00;99.40;;;;;;5094239;28;20046;-71
2023/06/11 08:54:15;;;;;;;0.60;0.60;;;28.10;98.70;;;;;;5094423;28;20375;-72
2023/06/11 08:56:42;;;;;;;0.55;0.55;;;28.20;98.30;;;;;;5094163;28;20032;-71
2023/06/11 08:59:08;;;;;;;0.38;0.38;;;28.40;98.60;;;;;;5094350;28;20055;-71
2023/06/11 09:01:33;;;;;;;0.57;0.57;;;28.60;98.10;;;;;;5094069;28;20044;-72
2023/06/11 09:04:00;;;;;;;0.40;0.40;;;28.70;98.00;;;;;;5093847;28;20347;-71
2023/06/11 09:06:27;;;;;;;1.10;1.00;;;28.80;97.30;;;;;;5093998;28;20142;-71
2023/06/11 09:09:02;;;;;;;0.43;0.43;;;28.90;97.30;;;;;;5094020;28;20040;-71
2023/06/11 09:11:36;;;;;;;0.30;0.30;;;29.10;97.40;;;;;;5094341;28;20120;-72
2023/06/11 09:14:02;;;;;;;0.98;0.68;;;29.00;96.50;;;;;;5093364;28;20047;-72
2023/06/11 09:16:28;;;;;;;;;;;29.00;97.40;;;;;;5094332;28;20047;-71
2023/06/11 09:18:56;;;;;;;0.75;0.40;;;29.10;97.00;;;;;;5093826;28;19916;-72
2023/06/11 09:21:25;;;;;;;0.30;0.30;;;29.30;96.40;;;;;;5093836;28;20042;-71
2023/06/11 09:23:51;;;;;;;0.40;0.40;;;29.20;96.40;;;;;;5093807;28;20123;-72
2023/06/11 09:26:18;;;;;;;0.40;0.40;;;29.20;96.60;;;;;;5093910;28;20039;-71
2023/06/11 09:28:46;;;;;;;0.40;0.40;;;29.10;96.60;;;;;;5093779;28;20428;-71
2023/06/11 09:31:11;;;;;;;0.30;0.30;;;29.10;96.30;;;;;;5093756;28;20119;-71
2023/06/11 09:33:37;;;;;;;0.40;0.40;;;29.20;95.60;;;;;;5092327;28;20444;-72
2023/06/11 09:36:03;;;;;;;0.57;0.57;;;29.20;95.60;;;;;;5093680;28;20337;-71
2023/06/11 09:38:33;;;;;;;0.30;0.30;;;29.30;96.40;;;;;;5093516;28;20278;-72
2023/06/11 09:40:59;;;;;;;0.75;0.57;;;29.40;96.10;;;;;;5093771;28;20036;-72
2023/06/11 09:43:25;;;;;;;0.47;0.47;;;29.50;95.70;;;;;;5093774;28;20055;-72
2023/06/11 09:45:55;;;;;;;0.47;0.47;;;29.70;95.80;;;;;;5093504;28;20047;-71
2023/06/11 09:48:22;;;;;;;1.75;0.88;;;29.80;94.70;;;;;;5093642;28;20048;-72
2023/06/11 09:50:49;;;;;;;1.15;0.93;;;29.80;94.80;;;;;;5093968;28;20437;-72
2023/06/11 09:53:15;;;;;;;1.15;0.65;;;30.00;95.70;;;;;;5093579;28;20472;-71
2023/06/11 09:55:41;;;;;;;1.15;1.05;;;30.00;93.90;;;;;;5093696;28;20084;-71
2023/06/11 09:58:08;;;;;;;0.40;0.40;;;30.10;93.70;;;;;;5092728;28;20135;-71
2023/06/11 10:00:35;;;;;;;2.20;1.38;;;30.20;94.30;;;;;;5093444;28;20117;-71
2023/06/11 10:03:01;;;;;;;0.45;0.45;;;30.20;94.20;;;;;;5093447;28;20048;-73
2023/06/11 10:05:28;;;;;;;0.95;0.70;;;30.20;93.30;;;;;;5093752;28;20074;-71
2023/06/11 10:08:05;;;;;;;0.30;0.30;;;30.30;92.80;;;;;;5093402;28;20040;-72
2023/06/11 10:10:38;;;;;;;0.75;0.63;;;30.40;92.40;;;;;;5093643;28;20444;-71
2023/06/11 10:13:04;;;;;;;1.08;0.50;;;30.40;92.60;;;;;;5093361;28;20040;-73
2023/06/11 10:15:31;;;;;;;0.28;0.28;;;30.40;92.70;;;;;;5093493;28;20059;-71
2023/06/11 10:17:57;;;;;;;0.90;0.63;;;30.40;92.80;;;;;;5093885;28;20075;-71
2023/06/11 10:20:35;;;;;;;0.52;0.40;;;30.40;92.60;;;;;;5093373;28;20037;-72
2023/06/11 10:23:10;;;;;;;0.30;0.30;;;30.50;91.80;;;;;;5093503;28;20047;-72
2023/06/11 10:25:41;;;;;;;0.45;0.45;;;30.50;92.60;;;;;;5093478;28;20043;-73
2023/06/11 10:28:08;;;;;;;0.30;0.30;;;30.70;91.80;;;;;;5096986;28;20039;-72
2023/06/11 10:30:34;;;;;;;0.40;0.40;;;30.80;92.40;;;;;;5096824;28;20086;-71
2023/06/11 10:33:00;;;;;;;0.40;0.40;;;30.90;91.60;;;;;;5096820;28;20075;-71
2023/06/11 10:35:31;;;;;;;0.70;0.63;;;30.80;91.80;;;;;;5096747;28;20035;-72
2023/06/11 10:38:12;;;;;;;0.98;0.65;;;31.00;91.50;;;;;;5096950;28;20083;-71
2023/06/11 10:40:38;;;;;;;0.65;0.65;;;31.00;91.60;;;;;;5096721;28;20032;-71
2023/06/11 10:43:16;;;;;;;0.50;0.50;;;31.10;90.90;;;;;;5096598;28;20126;-71
2023/06/11 10:45:42;;;;;;;0.32;0.32;;;31.20;90.90;;;;;;5096388;28;20090;-72
2023/06/11 10:48:10;;;;;;;0.88;0.82;;;31.30;90.20;;;;;;5096457;28;20036;-71
2023/06/11 10:50:35;;;;;;;0.40;0.40;;;31.30;90.80;;;;;;5095078;28;20087;-72
2023/06/11 10:53:08;;;;;;;0.40;0.40;;;31.40;90.80;;;;;;5096925;28;20071;-71
2023/06/11 10:55:34;;;;;;;0.40;0.40;;;31.40;89.60;;;;;;5096718;28;20039;-71
2023/06/11 10:58:01;;;;;;;1.55;0.55;;;31.40;89.80;;;;;;5096352;28;20048;-72
2023/06/11 11:00:28;;;;;;;;;;;31.60;90.10;;;;;;5096748;28;20371;-71
2023/06/11 11:02:56;;;;;;;0.40;0.40;;;31.50;87.20;;;;;;5096350;28;19942;-71
2023/06/11 11:05:22;;;;;;;0.52;0.52;;;31.50;88.60;;;;;;5096587;28;20044;-72
2023/06/11 11:07:48;;;;;;;0.45;0.45;;;31.50;87.10;;;;;;5096231;28;20031;-71
2023/06/11 11:10:19;;;;;;;;;;;31.40;88.80;;;;;;5096550;28;20051;-72
2023/06/11 11:12:47;;;;;;;0.30;0.30;;;31.40;86.50;;;;;;5096134;28;20048;-71
2023/06/11 11:15:13;;;;;;;0.40;0.40;;;31.60;88.50;;;;;;5095930;28;20119;-72
2023/06/11 11:17:40;;;;;;;1.50;0.68;;;31.60;86.20;;;;;;5096006;28;20040;-72
2023/06/11 11:20:14;;;;;;;1.00;0.45;;;31.70;85.50;;;;;;5095884;28;20044;-72
2023/06/11 11:22:40;;;;;;;0.60;0.50;;;31.70;85.70;;;;;;5095913;28;20040;-71
2023/06/11 11:25:07;;;;;;;0.40;0.40;;;31.60;84.60;;;;;;5096192;28;20105;-71
2023/06/11 11:27:34;;;;;;;0.55;0.55;;;31.60;85.20;;;;;;5096034;28;20144;-72
2023/06/11 11:30:02;;;;;;;0.50;0.50;;;31.50;84.80;;;;;;5095869;28;20044;-72
2023/06/11 11:32:31;;;;;;;0.57;0.52;;;31.50;83.70;;;;;;5095596;28;20494;-72
2023/06/11 11:34:57;;;;;;;0.50;0.50;;;31.50;85.50;;;;;;5095590;28;20039;-72
2023/06/11 11:37:23;;;;;;;0.70;0.68;;;31.60;85.30;;;;;;5095212;28;20035;-72
2023/06/11 11:39:49;;;;;;;0.35;0.35;;;31.40;84.20;;;;;;5095871;28;20043;-72
2023/06/11 11:42:15;;;;;;;0.40;0.40;;;31.40;82.30;;;;;;5095179;28;20484;-71
2023/06/11 11:44:42;;;;;;;0.85;0.73;;;31.50;83.80;;;;;;5095405;28;20085;-72
2023/06/11 11:47:11;;;;;;;1.92;0.57;;;31.60;82.50;;;;;;5094135;28;20492;-72
2023/06/11 11:49:37;;;;;;;1.70;0.80;;;31.80;82.40;;;;;;5095297;28;20191;-71
2023/06/11 11:52:06;;;;;;;4.45;0.95;;;31.80;82.30;;;;;;5095266;28;20075;-71
2023/06/11 11:54:32;;;;;;;0.65;0.50;;;32.00;81.50;;;;;;5095121;28;20045;-72
2023/06/11 11:57:07;;;;;;;;;;;32.10;82.40;;;;;;5095771;28;20044;-73
2023/06/11 11:59:40;;;;;;;0.50;0.50;;;32.30;82.70;;;;;;5095003;28;19920;-72
2023/06/11 12:02:07;;;;;;;0.30;0.30;;;32.20;81.20;;;;;;5095322;28;20372;-72
2023/06/11 12:04:46;;;;;;;0.65;0.65;;;31.90;81.40;;;;;;5095218;28;20055;-73
2023/06/11 12:07:14;;;;;;;0.93;0.73;;;31.80;81.20;;;;;;5094992;28;20392;-72
2023/06/11 12:09:41;;;;;;;0.82;0.63;;;31.90;81.30;;;;;;5093625;28;20036;-71
2023/06/11 12:12:08;;;;;;;1.33;0.85;;;32.00;79.10;;;;;;5094777;28;20028;-71
2023/06/11 12:14:34;;;;;;;0.43;0.43;;;32.10;79.80;;;;;;5094595;28;20036;-72
2023/06/11 12:17:00;;;;;;;0.63;0.63;;;32.30;80.00;;;;;;5095011;28;20078;-72
2023/06/11 12:19:28;;;;;;;0.40;0.40;;;32.30;79.70;;;;;;5095307;28;20083;-73
2023/06/11 12:21:55;;;;;;;0.40;0.40;;;32.20;79.00;;;;;;5094579;28;20181;-72
2023/06/11 12:24:22;;;;;;;0.50;0.50;;;32.00;78.60;;;;;;5094624;28;20098;-72
2023/06/11 12:26:49;;;;;;;0.50;0.45;;;32.00;78.60;;;;;;5094537;28;20048;-72
2023/06/11 12:29:15;;;;;;;0.30;0.30;;;32.00;78.80;;;;;;5094574;28;20040;-72
2023/06/11 12:31:41;;;;;;;0.95;0.85;;;32.20;79.70;;;;;;5094546;28;20076;-73
2023/06/11 12:34:09;;;;;;;1.17;0.90;;;32.20;79.20;;;;;;5094614;28;20082;-71
2023/06/11 12:36:36;;;;;;;1.15;0.57;;;31.80;78.50;;;;;;5093198;28;20032;-72
2023/06/11 12:39:04;;;;;;;5.53;0.85;;;31.80;78.10;;;;;;5094107;28;20531;-72
2023/06/11 12:41:31;;;;;;;0.50;0.50;;;31.80;77.40;;;;;;5094322;28;20028;-72
2023/06/11 12:44:00;;;;;;;1.08;1.02;;;31.90;78.60;;;;;;5094703;28;20484;-72
2023/06/11 12:46:26;;;;;;;0.95;0.73;;;32.00;79.40;;;;;;5094647;28;20040;-72